sensor_id;sensor_type;location;lat;lon;timestamp;temperature;humidity
68766;DHT22;55756;45.582;11.484;2023-12-22T00:00:44;9.30;54.80
68766;DHT22;55756;45.582;11.484;2023-12-22T00:03:13;9.40;54.90
68766;DHT22;55756;45.582;11.484;2023-12-22T00:05:39;9.30;55.00
68766;DHT22;55756;45.582;11.484;2023-12-22T00:08:05;9.30;55.10
68766;DHT22;55756;45.582;11.484;2023-12-22T00:10:31;9.30;55.20
68766;DHT22;55756;45.582;11.484;2023-12-22T00:12:57;9.30;55.30
68766;DHT22;55756;45.582;11.484;2023-12-22T00:15:23;9.30;55.10
68766;DHT22;55756;45.582;11.484;2023-12-22T00:17:48;9.40;55.00
68766;DHT22;55756;45.582;11.484;2023-12-22T00:20:14;9.40;55.10
68766;DHT22;55756;45.582;11.484;2023-12-22T00:22:40;9.30;55.30
68766;DHT22;55756;45.582;11.484;2023-12-22T00:25:06;9.40;55.30
68766;DHT22;55756;45.582;11.484;2023-12-22T00:27:33;9.40;55.30
68766;DHT22;55756;45.582;11.484;2023-12-22T00:29:59;9.40;55.20
68766;DHT22;55756;45.582;11.484;2023-12-22T00:32:25;9.40;55.20
68766;DHT22;55756;45.582;11.484;2023-12-22T00:34:50;9.40;55.30
68766;DHT22;55756;45.582;11.484;2023-12-22T00:37:16;9.40;55.40
68766;DHT22;55756;45.582;11.484;2023-12-22T00:39:42;9.40;55.20
68766;DHT22;55756;45.582;11.484;2023-12-22T00:42:08;9.40;55.00
68766;DHT22;55756;45.582;11.484;2023-12-22T00:44:33;9.40;54.80
68766;DHT22;55756;45.582;11.484;2023-12-22T00:46:59;9.40;54.70
68766;DHT22;55756;45.582;11.484;2023-12-22T00:49:25;9.40;54.90
68766;DHT22;55756;45.582;11.484;2023-12-22T00:51:50;9.40;54.90
68766;DHT22;55756;45.582;11.484;2023-12-22T00:54:16;9.40;54.80
68766;DHT22;55756;45.582;11.484;2023-12-22T00:56:42;9.40;54.80
68766;DHT22;55756;45.582;11.484;2023-12-22T00:59:08;9.40;54.90
68766;DHT22;55756;45.582;11.484;2023-12-22T01:01:33;9.40;55.10
68766;DHT22;55756;45.582;11.484;2023-12-22T01:03:59;9.40;55.50
68766;DHT22;55756;45.582;11.484;2023-12-22T01:06:25;9.50;55.60
68766;DHT22;55756;45.582;11.484;2023-12-22T01:08:50;9.50;55.70
68766;DHT22;55756;45.582;11.484;2023-12-22T01:11:19;9.50;55.90
68766;DHT22;55756;45.582;11.484;2023-12-22T01:13:45;9.50;56.30
68766;DHT22;55756;45.582;11.484;2023-12-22T01:16:10;9.50;56.10
68766;DHT22;55756;45.582;11.484;2023-12-22T01:18:36;9.50;56.10
68766;DHT22;55756;45.582;11.484;2023-12-22T01:21:03;9.50;56.30
68766;DHT22;55756;45.582;11.484;2023-12-22T01:23:28;9.50;56.40
68766;DHT22;55756;45.582;11.484;2023-12-22T01:25:54;9.50;56.30
68766;DHT22;55756;45.582;11.484;2023-12-22T01:28:20;9.50;56.30
68766;DHT22;55756;45.582;11.484;2023-12-22T01:30:45;9.50;56.20
68766;DHT22;55756;45.582;11.484;2023-12-22T01:33:11;9.50;56.40
68766;DHT22;55756;45.582;11.484;2023-12-22T01:35:37;9.50;56.60
68766;DHT22;55756;45.582;11.484;2023-12-22T01:38:03;9.50;56.30
68766;DHT22;55756;45.582;11.484;2023-12-22T01:40:28;9.60;56.50
68766;DHT22;55756;45.582;11.484;2023-12-22T01:42:54;9.60;56.50
68766;DHT22;55756;45.582;11.484;2023-12-22T01:45:20;9.60;56.50
68766;DHT22;55756;45.582;11.484;2023-12-22T01:47:46;9.60;56.20
68766;DHT22;55756;45.582;11.484;2023-12-22T01:50:13;9.60;56.20
68766;DHT22;55756;45.582;11.484;2023-12-22T01:52:40;9.60;55.90
68766;DHT22;55756;45.582;11.484;2023-12-22T01:55:09;9.60;55.80
68766;DHT22;55756;45.582;11.484;2023-12-22T01:57:36;9.60;55.70
68766;DHT22;55756;45.582;11.484;2023-12-22T02:00:02;9.60;55.50
68766;DHT22;55756;45.582;11.484;2023-12-22T02:02:37;9.60;55.60
68766;DHT22;55756;45.582;11.484;2023-12-22T02:05:04;9.50;55.70
68766;DHT22;55756;45.582;11.484;2023-12-22T02:07:31;9.50;55.80
68766;DHT22;55756;45.582;11.484;2023-12-22T02:09:57;9.50;55.90
68766;DHT22;55756;45.582;11.484;2023-12-22T02:12:23;9.50;55.90
68766;DHT22;55756;45.582;11.484;2023-12-22T02:14:49;9.50;56.00
68766;DHT22;55756;45.582;11.484;2023-12-22T02:17:29;9.50;56.00
68766;DHT22;55756;45.582;11.484;2023-12-22T02:19:58;9.50;55.80
68766;DHT22;55756;45.582;11.484;2023-12-22T02:22:24;9.50;55.90
68766;DHT22;55756;45.582;11.484;2023-12-22T02:24:50;9.50;56.00
68766;DHT22;55756;45.582;11.484;2023-12-22T02:32:34;9.50;56.20
68766;DHT22;55756;45.582;11.484;2023-12-22T02:35:03;9.40;56.20
68766;DHT22;55756;45.582;11.484;2023-12-22T02:37:31;9.40;56.40
68766;DHT22;55756;45.582;11.484;2023-12-22T02:39:58;9.40;56.50
68766;DHT22;55756;45.582;11.484;2023-12-22T02:42:24;9.50;56.30
68766;DHT22;55756;45.582;11.484;2023-12-22T02:44:59;9.50;56.20
68766;DHT22;55756;45.582;11.484;2023-12-22T02:47:25;9.50;56.10
68766;DHT22;55756;45.582;11.484;2023-12-22T02:49:53;9.50;55.80
68766;DHT22;55756;45.582;11.484;2023-12-22T02:52:19;9.50;55.70
68766;DHT22;55756;45.582;11.484;2023-12-22T02:54:45;9.50;55.60
68766;DHT22;55756;45.582;11.484;2023-12-22T02:57:13;9.50;55.40
68766;DHT22;55756;45.582;11.484;2023-12-22T02:59:38;9.50;55.40
68766;DHT22;55756;45.582;11.484;2023-12-22T03:02:04;9.50;55.50
68766;DHT22;55756;45.582;11.484;2023-12-22T03:04:30;9.50;55.50
68766;DHT22;55756;45.582;11.484;2023-12-22T03:06:56;9.50;55.60
68766;DHT22;55756;45.582;11.484;2023-12-22T03:09:22;9.50;55.50
68766;DHT22;55756;45.582;11.484;2023-12-22T03:11:48;9.50;55.60
68766;DHT22;55756;45.582;11.484;2023-12-22T03:14:14;9.50;55.40
68766;DHT22;55756;45.582;11.484;2023-12-22T03:16:40;9.50;55.50
68766;DHT22;55756;45.582;11.484;2023-12-22T03:19:09;9.50;55.60
68766;DHT22;55756;45.582;11.484;2023-12-22T03:21:34;9.50;55.70
68766;DHT22;55756;45.582;11.484;2023-12-22T03:24:00;9.50;55.80
68766;DHT22;55756;45.582;11.484;2023-12-22T03:26:29;9.40;56.00
68766;DHT22;55756;45.582;11.484;2023-12-22T03:28:54;9.50;55.90
68766;DHT22;55756;45.582;11.484;2023-12-22T03:31:20;9.40;55.90
68766;DHT22;55756;45.582;11.484;2023-12-22T03:33:46;9.40;55.90
68766;DHT22;55756;45.582;11.484;2023-12-22T03:36:11;9.40;56.00
68766;DHT22;55756;45.582;11.484;2023-12-22T03:38:37;9.40;55.70
68766;DHT22;55756;45.582;11.484;2023-12-22T03:41:03;9.40;55.60
68766;DHT22;55756;45.582;11.484;2023-12-22T03:43:31;9.40;55.70
68766;DHT22;55756;45.582;11.484;2023-12-22T03:45:57;9.40;55.70
68766;DHT22;55756;45.582;11.484;2023-12-22T03:48:23;9.40;55.70
68766;DHT22;55756;45.582;11.484;2023-12-22T03:50:49;9.40;55.70
68766;DHT22;55756;45.582;11.484;2023-12-22T03:53:14;9.50;55.70
68766;DHT22;55756;45.582;11.484;2023-12-22T03:55:40;9.50;55.80
68766;DHT22;55756;45.582;11.484;2023-12-22T03:58:06;9.50;56.00
68766;DHT22;55756;45.582;11.484;2023-12-22T04:00:33;9.50;55.90
68766;DHT22;55756;45.582;11.484;2023-12-22T04:03:00;9.50;56.10
68766;DHT22;55756;45.582;11.484;2023-12-22T04:05:25;9.50;56.00
68766;DHT22;55756;45.582;11.484;2023-12-22T04:07:51;9.50;56.10
68766;DHT22;55756;45.582;11.484;2023-12-22T04:10:17;9.50;56.10
68766;DHT22;55756;45.582;11.484;2023-12-22T04:12:43;9.50;56.00
68766;DHT22;55756;45.582;11.484;2023-12-22T04:15:09;9.50;55.90
68766;DHT22;55756;45.582;11.484;2023-12-22T04:17:35;9.40;55.90
68766;DHT22;55756;45.582;11.484;2023-12-22T04:20:01;9.40;55.80
68766;DHT22;55756;45.582;11.484;2023-12-22T04:22:26;9.40;56.00
68766;DHT22;55756;45.582;11.484;2023-12-22T04:24:52;9.40;55.80
68766;DHT22;55756;45.582;11.484;2023-12-22T04:27:18;9.40;55.80
68766;DHT22;55756;45.582;11.484;2023-12-22T04:29:44;9.40;55.70
68766;DHT22;55756;45.582;11.484;2023-12-22T04:32:09;9.40;55.80
68766;DHT22;55756;45.582;11.484;2023-12-22T04:34:35;9.40;55.70
68766;DHT22;55756;45.582;11.484;2023-12-22T04:37:01;9.40;55.80
68766;DHT22;55756;45.582;11.484;2023-12-22T04:39:26;9.30;55.70
68766;DHT22;55756;45.582;11.484;2023-12-22T04:41:52;9.30;55.70
68766;DHT22;55756;45.582;11.484;2023-12-22T04:44:18;9.30;55.60
68766;DHT22;55756;45.582;11.484;2023-12-22T04:46:43;9.30;56.00
68766;DHT22;55756;45.582;11.484;2023-12-22T04:49:09;9.30;56.10
68766;DHT22;55756;45.582;11.484;2023-12-22T04:51:35;9.40;55.90
68766;DHT22;55756;45.582;11.484;2023-12-22T04:54:00;9.30;55.90
68766;DHT22;55756;45.582;11.484;2023-12-22T04:56:26;9.40;55.80
68766;DHT22;55756;45.582;11.484;2023-12-22T04:58:52;9.40;55.70
68766;DHT22;55756;45.582;11.484;2023-12-22T05:01:18;9.40;55.70
68766;DHT22;55756;45.582;11.484;2023-12-22T05:03:45;9.30;55.70
68766;DHT22;55756;45.582;11.484;2023-12-22T05:06:11;9.30;55.90
68766;DHT22;55756;45.582;11.484;2023-12-22T05:08:37;9.30;56.00
68766;DHT22;55756;45.582;11.484;2023-12-22T05:11:03;9.30;56.10
68766;DHT22;55756;45.582;11.484;2023-12-22T05:13:28;9.30;55.70
68766;DHT22;55756;45.582;11.484;2023-12-22T05:15:54;9.30;55.50
68766;DHT22;55756;45.582;11.484;2023-12-22T05:18:20;9.30;55.40
68766;DHT22;55756;45.582;11.484;2023-12-22T05:20:46;9.30;55.10
68766;DHT22;55756;45.582;11.484;2023-12-22T05:23:12;9.30;55.20
68766;DHT22;55756;45.582;11.484;2023-12-22T05:25:38;9.30;54.90
68766;DHT22;55756;45.582;11.484;2023-12-22T05:28:03;9.20;54.50
68766;DHT22;55756;45.582;11.484;2023-12-22T05:30:29;9.20;54.30
68766;DHT22;55756;45.582;11.484;2023-12-22T05:32:55;9.20;54.10
68766;DHT22;55756;45.582;11.484;2023-12-22T05:35:21;9.20;53.90
68766;DHT22;55756;45.582;11.484;2023-12-22T05:37:46;9.10;54.00
68766;DHT22;55756;45.582;11.484;2023-12-22T05:40:13;9.10;54.10
68766;DHT22;55756;45.582;11.484;2023-12-22T05:42:39;9.10;54.20
68766;DHT22;55756;45.582;11.484;2023-12-22T05:45:06;9.10;54.50
68766;DHT22;55756;45.582;11.484;2023-12-22T05:47:32;9.10;54.50
68766;DHT22;55756;45.582;11.484;2023-12-22T05:49:59;9.10;54.60
68766;DHT22;55756;45.582;11.484;2023-12-22T05:52:24;9.10;54.70
68766;DHT22;55756;45.582;11.484;2023-12-22T05:54:50;9.10;54.90
68766;DHT22;55756;45.582;11.484;2023-12-22T05:57:16;9.00;55.00
68766;DHT22;55756;45.582;11.484;2023-12-22T05:59:42;9.00;55.10
68766;DHT22;55756;45.582;11.484;2023-12-22T06:02:08;9.00;54.80
68766;DHT22;55756;45.582;11.484;2023-12-22T06:04:34;9.00;54.60
68766;DHT22;55756;45.582;11.484;2023-12-22T06:07:00;9.10;54.60
68766;DHT22;55756;45.582;11.484;2023-12-22T06:09:26;9.00;54.30
68766;DHT22;55756;45.582;11.484;2023-12-22T06:11:52;9.00;54.20
68766;DHT22;55756;45.582;11.484;2023-12-22T06:14:17;9.00;54.30
68766;DHT22;55756;45.582;11.484;2023-12-22T06:16:43;9.00;54.60
68766;DHT22;55756;45.582;11.484;2023-12-22T06:19:09;9.00;54.90
68766;DHT22;55756;45.582;11.484;2023-12-22T06:21:39;9.00;54.90
68766;DHT22;55756;45.582;11.484;2023-12-22T06:24:05;9.00;55.10
68766;DHT22;55756;45.582;11.484;2023-12-22T06:26:31;9.00;55.30
68766;DHT22;55756;45.582;11.484;2023-12-22T06:28:57;9.00;55.40
68766;DHT22;55756;45.582;11.484;2023-12-22T06:31:23;9.00;55.60
68766;DHT22;55756;45.582;11.484;2023-12-22T06:33:49;9.00;56.00
68766;DHT22;55756;45.582;11.484;2023-12-22T06:36:22;9.00;56.40
68766;DHT22;55756;45.582;11.484;2023-12-22T06:38:49;9.00;56.00
68766;DHT22;55756;45.582;11.484;2023-12-22T06:41:26;9.00;56.10
68766;DHT22;55756;45.582;11.484;2023-12-22T06:43:52;9.00;56.00
68766;DHT22;55756;45.582;11.484;2023-12-22T06:46:18;9.00;55.90
68766;DHT22;55756;45.582;11.484;2023-12-22T06:48:45;9.00;55.90
68766;DHT22;55756;45.582;11.484;2023-12-22T06:53:47;9.10;55.90
68766;DHT22;55756;45.582;11.484;2023-12-22T06:56:23;9.00;56.00
68766;DHT22;55756;45.582;11.484;2023-12-22T06:58:50;9.00;55.80
68766;DHT22;55756;45.582;11.484;2023-12-22T07:03:51;9.10;56.00
68766;DHT22;55756;45.582;11.484;2023-12-22T07:06:22;9.10;56.00
68766;DHT22;55756;45.582;11.484;2023-12-22T07:11:45;9.10;55.90
68766;DHT22;55756;45.582;11.484;2023-12-22T07:14:11;9.10;55.60
68766;DHT22;55756;45.582;11.484;2023-12-22T07:16:37;9.20;55.30
68766;DHT22;55756;45.582;11.484;2023-12-22T07:19:04;9.10;55.20
68766;DHT22;55756;45.582;11.484;2023-12-22T07:21:30;9.10;55.20
68766;DHT22;55756;45.582;11.484;2023-12-22T07:23:56;9.10;55.20
68766;DHT22;55756;45.582;11.484;2023-12-22T07:26:24;9.10;55.20
68766;DHT22;55756;45.582;11.484;2023-12-22T07:28:50;9.10;55.40
68766;DHT22;55756;45.582;11.484;2023-12-22T07:31:15;9.10;55.40
68766;DHT22;55756;45.582;11.484;2023-12-22T07:33:41;9.10;55.50
68766;DHT22;55756;45.582;11.484;2023-12-22T07:36:07;9.10;55.60
68766;DHT22;55756;45.582;11.484;2023-12-22T07:38:33;9.10;55.60
68766;DHT22;55756;45.582;11.484;2023-12-22T07:40:59;9.10;55.40
68766;DHT22;55756;45.582;11.484;2023-12-22T07:43:25;9.10;55.40
68766;DHT22;55756;45.582;11.484;2023-12-22T07:45:51;9.10;55.30
68766;DHT22;55756;45.582;11.484;2023-12-22T07:48:17;9.10;55.50
68766;DHT22;55756;45.582;11.484;2023-12-22T07:50:43;9.10;55.70
68766;DHT22;55756;45.582;11.484;2023-12-22T07:53:10;9.10;55.80
68766;DHT22;55756;45.582;11.484;2023-12-22T07:55:35;9.10;55.80
68766;DHT22;55756;45.582;11.484;2023-12-22T07:58:01;9.10;56.00
68766;DHT22;55756;45.582;11.484;2023-12-22T08:00:27;9.10;56.10
68766;DHT22;55756;45.582;11.484;2023-12-22T08:02:53;9.10;56.10
68766;DHT22;55756;45.582;11.484;2023-12-22T08:05:19;9.20;56.10
68766;DHT22;55756;45.582;11.484;2023-12-22T08:07:45;9.20;56.10
68766;DHT22;55756;45.582;11.484;2023-12-22T08:10:10;9.20;56.10
68766;DHT22;55756;45.582;11.484;2023-12-22T08:12:36;9.20;56.00
68766;DHT22;55756;45.582;11.484;2023-12-22T08:15:03;9.20;56.10
68766;DHT22;55756;45.582;11.484;2023-12-22T08:17:29;9.20;56.10
68766;DHT22;55756;45.582;11.484;2023-12-22T08:19:55;9.20;56.40
68766;DHT22;55756;45.582;11.484;2023-12-22T08:22:21;9.20;56.40
68766;DHT22;55756;45.582;11.484;2023-12-22T08:24:48;9.20;56.70
68766;DHT22;55756;45.582;11.484;2023-12-22T08:27:14;9.20;56.70
68766;DHT22;55756;45.582;11.484;2023-12-22T08:29:39;9.20;56.90
68766;DHT22;55756;45.582;11.484;2023-12-22T08:32:06;9.30;57.20
68766;DHT22;55756;45.582;11.484;2023-12-22T08:34:31;9.30;57.40
68766;DHT22;55756;45.582;11.484;2023-12-22T08:36:57;9.30;57.60
68766;DHT22;55756;45.582;11.484;2023-12-22T08:39:23;9.30;57.70
68766;DHT22;55756;45.582;11.484;2023-12-22T08:41:52;9.40;57.80
68766;DHT22;55756;45.582;11.484;2023-12-22T08:44:18;9.40;58.00
68766;DHT22;55756;45.582;11.484;2023-12-22T08:46:44;9.50;57.90
68766;DHT22;55756;45.582;11.484;2023-12-22T08:49:10;9.50;58.00
68766;DHT22;55756;45.582;11.484;2023-12-22T08:51:36;9.60;58.20
68766;DHT22;55756;45.582;11.484;2023-12-22T08:54:02;9.60;58.30
68766;DHT22;55756;45.582;11.484;2023-12-22T08:56:30;9.60;58.30
68766;DHT22;55756;45.582;11.484;2023-12-22T08:58:55;9.70;58.50
68766;DHT22;55756;45.582;11.484;2023-12-22T09:01:24;9.80;58.60
68766;DHT22;55756;45.582;11.484;2023-12-22T09:03:50;9.80;58.70
68766;DHT22;55756;45.582;11.484;2023-12-22T09:06:17;9.90;58.60
68766;DHT22;55756;45.582;11.484;2023-12-22T09:08:43;9.90;58.70
68766;DHT22;55756;45.582;11.484;2023-12-22T09:11:11;10.00;58.70
68766;DHT22;55756;45.582;11.484;2023-12-22T09:13:37;10.00;59.20
68766;DHT22;55756;45.582;11.484;2023-12-22T09:16:04;10.00;59.40
68766;DHT22;55756;45.582;11.484;2023-12-22T09:18:31;10.10;59.70
68766;DHT22;55756;45.582;11.484;2023-12-22T09:20:57;10.20;59.90
68766;DHT22;55756;45.582;11.484;2023-12-22T09:23:23;10.20;60.00
68766;DHT22;55756;45.582;11.484;2023-12-22T09:25:49;10.30;60.00
68766;DHT22;55756;45.582;11.484;2023-12-22T09:28:15;10.30;59.80
68766;DHT22;55756;45.582;11.484;2023-12-22T09:30:40;10.40;59.90
68766;DHT22;55756;45.582;11.484;2023-12-22T09:33:08;10.30;60.00
68766;DHT22;55756;45.582;11.484;2023-12-22T09:35:34;10.40;60.10
68766;DHT22;55756;45.582;11.484;2023-12-22T09:38:01;10.40;60.30
68766;DHT22;55756;45.582;11.484;2023-12-22T09:40:27;10.40;60.30
68766;DHT22;55756;45.582;11.484;2023-12-22T09:42:55;10.50;60.40
68766;DHT22;55756;45.582;11.484;2023-12-22T09:45:22;10.50;60.50
68766;DHT22;55756;45.582;11.484;2023-12-22T09:47:50;10.60;59.90
68766;DHT22;55756;45.582;11.484;2023-12-22T09:50:17;10.70;59.40
68766;DHT22;55756;45.582;11.484;2023-12-22T09:52:44;10.70;59.40
68766;DHT22;55756;45.582;11.484;2023-12-22T09:55:12;10.70;59.40
68766;DHT22;55756;45.582;11.484;2023-12-22T09:57:39;10.80;59.20
68766;DHT22;55756;45.582;11.484;2023-12-22T10:00:11;10.80;59.00
68766;DHT22;55756;45.582;11.484;2023-12-22T10:02:39;10.80;58.60
68766;DHT22;55756;45.582;11.484;2023-12-22T10:05:06;10.90;58.70
68766;DHT22;55756;45.582;11.484;2023-12-22T10:07:33;11.00;59.10
68766;DHT22;55756;45.582;11.484;2023-12-22T10:09:59;11.10;59.20
68766;DHT22;55756;45.582;11.484;2023-12-22T10:12:28;11.20;59.60
68766;DHT22;55756;45.582;11.484;2023-12-22T10:14:56;11.30;59.50
68766;DHT22;55756;45.582;11.484;2023-12-22T10:17:22;11.30;59.80
68766;DHT22;55756;45.582;11.484;2023-12-22T10:19:48;11.40;59.60
68766;DHT22;55756;45.582;11.484;2023-12-22T10:22:14;11.40;59.30
68766;DHT22;55756;45.582;11.484;2023-12-22T10:27:10;11.50;59.00
68766;DHT22;55756;45.582;11.484;2023-12-22T10:29:37;11.60;59.10
68766;DHT22;55756;45.582;11.484;2023-12-22T10:32:05;11.60;58.50
68766;DHT22;55756;45.582;11.484;2023-12-22T10:34:31;11.60;58.20
68766;DHT22;55756;45.582;11.484;2023-12-22T10:37:00;11.70;57.80
68766;DHT22;55756;45.582;11.484;2023-12-22T10:39:30;11.80;57.40
68766;DHT22;55756;45.582;11.484;2023-12-22T10:41:56;11.80;57.30
68766;DHT22;55756;45.582;11.484;2023-12-22T10:44:27;11.80;57.50
68766;DHT22;55756;45.582;11.484;2023-12-22T10:46:53;11.80;57.90
68766;DHT22;55756;45.582;11.484;2023-12-22T10:49:20;11.90;57.60
68766;DHT22;55756;45.582;11.484;2023-12-22T10:51:46;11.90;57.20
68766;DHT22;55756;45.582;11.484;2023-12-22T10:54:12;12.00;57.20
68766;DHT22;55756;45.582;11.484;2023-12-22T10:56:39;12.00;57.60
68766;DHT22;55756;45.582;11.484;2023-12-22T10:59:06;12.10;57.40
68766;DHT22;55756;45.582;11.484;2023-12-22T11:01:32;12.10;57.40
68766;DHT22;55756;45.582;11.484;2023-12-22T11:04:02;12.10;57.40
68766;DHT22;55756;45.582;11.484;2023-12-22T11:06:35;12.10;57.30
68766;DHT22;55756;45.582;11.484;2023-12-22T11:09:06;12.10;57.30
68766;DHT22;55756;45.582;11.484;2023-12-22T11:11:36;12.20;57.60
68766;DHT22;55756;45.582;11.484;2023-12-22T11:14:03;12.20;57.20
68766;DHT22;55756;45.582;11.484;2023-12-22T11:16:31;12.20;57.10
68766;DHT22;55756;45.582;11.484;2023-12-22T11:18:56;12.30;57.20
68766;DHT22;55756;45.582;11.484;2023-12-22T11:21:24;12.30;57.40
68766;DHT22;55756;45.582;11.484;2023-12-22T11:23:51;12.30;57.30
68766;DHT22;55756;45.582;11.484;2023-12-22T11:26:22;12.30;57.60
68766;DHT22;55756;45.582;11.484;2023-12-22T11:28:52;12.30;57.40
68766;DHT22;55756;45.582;11.484;2023-12-22T11:31:18;12.40;57.20
68766;DHT22;55756;45.582;11.484;2023-12-22T11:33:46;12.40;57.30
68766;DHT22;55756;45.582;11.484;2023-12-22T11:36:12;12.40;57.60
68766;DHT22;55756;45.582;11.484;2023-12-22T11:38:40;12.50;57.70
68766;DHT22;55756;45.582;11.484;2023-12-22T11:41:09;12.50;57.80
68766;DHT22;55756;45.582;11.484;2023-12-22T11:43:37;12.50;58.20
68766;DHT22;55756;45.582;11.484;2023-12-22T11:46:04;12.50;58.20
68766;DHT22;55756;45.582;11.484;2023-12-22T11:48:30;12.60;58.00
68766;DHT22;55756;45.582;11.484;2023-12-22T11:50:56;12.60;57.80
68766;DHT22;55756;45.582;11.484;2023-12-22T11:53:29;12.60;57.90
68766;DHT22;55756;45.582;11.484;2023-12-22T11:56:03;12.60;57.90
68766;DHT22;55756;45.582;11.484;2023-12-22T11:58:41;12.70;57.80
68766;DHT22;55756;45.582;11.484;2023-12-22T12:01:14;12.70;57.90
68766;DHT22;55756;45.582;11.484;2023-12-22T12:03:55;12.70;57.80
68766;DHT22;55756;45.582;11.484;2023-12-22T12:09:00;12.70;57.80
68766;DHT22;55756;45.582;11.484;2023-12-22T12:14:14;12.80;57.90
68766;DHT22;55756;45.582;11.484;2023-12-22T12:16:42;12.80;57.90
68766;DHT22;55756;45.582;11.484;2023-12-22T12:19:09;12.80;58.00
68766;DHT22;55756;45.582;11.484;2023-12-22T12:21:35;12.90;58.10
68766;DHT22;55756;45.582;11.484;2023-12-22T12:24:00;12.80;58.30
68766;DHT22;55756;45.582;11.484;2023-12-22T12:26:27;12.90;58.60
68766;DHT22;55756;45.582;11.484;2023-12-22T12:28:54;12.90;58.60
68766;DHT22;55756;45.582;11.484;2023-12-22T12:31:35;13.00;58.50
68766;DHT22;55756;45.582;11.484;2023-12-22T12:34:04;13.00;58.50
68766;DHT22;55756;45.582;11.484;2023-12-22T12:36:31;13.00;58.40
68766;DHT22;55756;45.582;11.484;2023-12-22T12:39:07;13.10;58.10
68766;DHT22;55756;45.582;11.484;2023-12-22T12:41:41;13.10;58.10
68766;DHT22;55756;45.582;11.484;2023-12-22T12:44:09;13.20;58.00
68766;DHT22;55756;45.582;11.484;2023-12-22T12:46:37;13.20;57.80
68766;DHT22;55756;45.582;11.484;2023-12-22T12:49:07;13.20;57.70
68766;DHT22;55756;45.582;11.484;2023-12-22T12:51:36;13.20;57.80
68766;DHT22;55756;45.582;11.484;2023-12-22T12:54:03;13.20;57.80
68766;DHT22;55756;45.582;11.484;2023-12-22T12:56:29;13.20;57.70
68766;DHT22;55756;45.582;11.484;2023-12-22T12:58:55;13.30;57.60
68766;DHT22;55756;45.582;11.484;2023-12-22T13:01:20;13.30;57.60
68766;DHT22;55756;45.582;11.484;2023-12-22T13:03:55;13.30;57.70
68766;DHT22;55756;45.582;11.484;2023-12-22T13:06:22;13.30;57.70
68766;DHT22;55756;45.582;11.484;2023-12-22T13:08:51;13.30;57.60
68766;DHT22;55756;45.582;11.484;2023-12-22T13:11:29;13.40;57.50
68766;DHT22;55756;45.582;11.484;2023-12-22T13:13:56;13.40;57.50
68766;DHT22;55756;45.582;11.484;2023-12-22T13:16:24;13.40;57.50
68766;DHT22;55756;45.582;11.484;2023-12-22T13:18:57;13.40;57.40
68766;DHT22;55756;45.582;11.484;2023-12-22T13:21:26;13.40;57.60
68766;DHT22;55756;45.582;11.484;2023-12-22T13:24:12;13.50;57.50
68766;DHT22;55756;45.582;11.484;2023-12-22T13:26:39;13.50;57.60
68766;DHT22;55756;45.582;11.484;2023-12-22T13:29:08;13.50;57.60
68766;DHT22;55756;45.582;11.484;2023-12-22T13:31:39;13.50;57.60
68766;DHT22;55756;45.582;11.484;2023-12-22T13:34:13;13.50;57.70
68766;DHT22;55756;45.582;11.484;2023-12-22T13:36:40;13.50;57.60
68766;DHT22;55756;45.582;11.484;2023-12-22T13:39:08;13.60;57.60
68766;DHT22;55756;45.582;11.484;2023-12-22T13:41:35;13.60;57.50
68766;DHT22;55756;45.582;11.484;2023-12-22T13:44:05;13.60;57.50
68766;DHT22;55756;45.582;11.484;2023-12-22T13:46:31;13.60;57.60
68766;DHT22;55756;45.582;11.484;2023-12-22T13:48:58;13.70;57.80
68766;DHT22;55756;45.582;11.484;2023-12-22T13:51:24;13.70;57.70
68766;DHT22;55756;45.582;11.484;2023-12-22T13:53:50;13.70;57.80
68766;DHT22;55756;45.582;11.484;2023-12-22T13:56:16;13.70;58.00
68766;DHT22;55756;45.582;11.484;2023-12-22T13:58:45;13.70;58.00
68766;DHT22;55756;45.582;11.484;2023-12-22T14:01:17;13.70;58.10
68766;DHT22;55756;45.582;11.484;2023-12-22T14:03:43;13.60;58.20
68766;DHT22;55756;45.582;11.484;2023-12-22T14:06:12;13.70;58.60
68766;DHT22;55756;45.582;11.484;2023-12-22T14:08:41;13.70;58.70
68766;DHT22;55756;45.582;11.484;2023-12-22T14:11:07;13.70;58.90
68766;DHT22;55756;45.582;11.484;2023-12-22T14:13:33;13.70;58.90
68766;DHT22;55756;45.582;11.484;2023-12-22T14:16:04;13.70;59.10
68766;DHT22;55756;45.582;11.484;2023-12-22T14:18:30;13.70;59.60
68766;DHT22;55756;45.582;11.484;2023-12-22T14:20:56;13.70;60.00
68766;DHT22;55756;45.582;11.484;2023-12-22T14:23:21;13.70;60.20
68766;DHT22;55756;45.582;11.484;2023-12-22T14:25:47;13.70;60.50
68766;DHT22;55756;45.582;11.484;2023-12-22T14:28:13;13.70;60.50
68766;DHT22;55756;45.582;11.484;2023-12-22T14:30:39;13.70;60.70
68766;DHT22;55756;45.582;11.484;2023-12-22T14:33:05;13.70;60.70
68766;DHT22;55756;45.582;11.484;2023-12-22T14:35:31;13.70;60.50
68766;DHT22;55756;45.582;11.484;2023-12-22T14:37:56;13.70;60.50
68766;DHT22;55756;45.582;11.484;2023-12-22T14:40:22;13.70;60.70
68766;DHT22;55756;45.582;11.484;2023-12-22T14:42:48;13.70;60.30
68766;DHT22;55756;45.582;11.484;2023-12-22T14:45:14;13.70;60.00
68766;DHT22;55756;45.582;11.484;2023-12-22T14:47:39;13.70;59.70
68766;DHT22;55756;45.582;11.484;2023-12-22T14:50:06;13.70;59.70
68766;DHT22;55756;45.582;11.484;2023-12-22T14:52:32;13.70;59.70
68766;DHT22;55756;45.582;11.484;2023-12-22T14:55:01;13.70;59.70
68766;DHT22;55756;45.582;11.484;2023-12-22T14:57:27;13.80;59.70
68766;DHT22;55756;45.582;11.484;2023-12-22T14:59:56;13.70;59.80
68766;DHT22;55756;45.582;11.484;2023-12-22T15:02:22;13.70;60.00
68766;DHT22;55756;45.582;11.484;2023-12-22T15:04:48;13.70;60.00
68766;DHT22;55756;45.582;11.484;2023-12-22T15:07:17;13.70;60.00
68766;DHT22;55756;45.582;11.484;2023-12-22T15:09:43;13.70;60.00
68766;DHT22;55756;45.582;11.484;2023-12-22T15:12:09;13.70;60.00
68766;DHT22;55756;45.582;11.484;2023-12-22T15:14:34;13.70;60.20
68766;DHT22;55756;45.582;11.484;2023-12-22T15:17:00;13.70;60.00
68766;DHT22;55756;45.582;11.484;2023-12-22T15:19:26;13.60;59.90
68766;DHT22;55756;45.582;11.484;2023-12-22T15:21:51;13.60;60.00
68766;DHT22;55756;45.582;11.484;2023-12-22T15:24:17;13.60;59.70
68766;DHT22;55756;45.582;11.484;2023-12-22T15:26:43;13.60;59.80
68766;DHT22;55756;45.582;11.484;2023-12-22T15:29:09;13.60;59.80
68766;DHT22;55756;45.582;11.484;2023-12-22T15:31:35;13.60;59.80
68766;DHT22;55756;45.582;11.484;2023-12-22T15:34:01;13.60;59.80
68766;DHT22;55756;45.582;11.484;2023-12-22T15:36:27;13.50;59.70
68766;DHT22;55756;45.582;11.484;2023-12-22T15:38:54;13.50;59.90
68766;DHT22;55756;45.582;11.484;2023-12-22T15:41:20;13.50;59.80
68766;DHT22;55756;45.582;11.484;2023-12-22T15:43:45;13.40;59.70